Time;durP1;ratioP1;P1;durP2;ratioP2;P2;SDS_P1;SDS_P2;PMS_P1;PMS_P2;Temp;Humidity;BMP_temperature;BMP_pressure;BME280_temperature;BME280_humidity;BME280_pressure;Samples;Min_cycle;Max_cycle;Signal;HPM_P1;HPM_P2
2021/10/20 00:00:52;;;;;;;10.90;9.20;;;13.10;99.90;;;;;;5095459;28;20200;-64
2021/10/20 00:03:20;;;;;;;10.20;9.20;;;13.20;99.90;;;;;;5095300;28;20242;-65
2021/10/20 00:05:48;;;;;;;9.43;8.43;;;13.20;99.90;;;;;;5095485;28;20200;-64
2021/10/20 00:08:16;;;;;;;9.10;8.20;;;13.20;99.90;;;;;;5095333;28;20327;-64
2021/10/20 00:10:47;;;;;;;10.43;8.53;;;13.10;99.90;;;;;;5094546;28;20319;-65
2021/10/20 00:13:15;;;;;;;9.83;8.83;;;13.20;99.90;;;;;;5094118;28;20291;-65
2021/10/20 00:15:43;;;;;;;9.23;8.20;;;13.20;99.90;;;;;;5093729;28;20204;-66
2021/10/20 00:18:11;;;;;;;9.17;8.27;;;13.20;99.90;;;;;;5093382;28;20207;-65
2021/10/20 00:20:40;;;;;;;10.32;8.68;;;13.10;99.90;;;;;;5093815;28;20199;-66
2021/10/20 00:23:08;;;;;;;9.20;8.30;;;13.10;99.90;;;;;;5093883;28;20286;-65
2021/10/20 00:25:36;;;;;;;9.13;8.23;;;13.00;99.90;;;;;;5093367;28;20648;-65
2021/10/20 00:28:08;;;;;;;9.07;8.17;;;13.10;99.90;;;;;;5093091;28;20697;-65
2021/10/20 00:30:36;;;;;;;10.27;8.18;;;13.00;99.90;;;;;;5093711;28;20194;-65
2021/10/20 00:33:04;;;;;;;9.57;8.57;;;13.10;99.90;;;;;;5093559;28;20196;-67
2021/10/20 00:35:33;;;;;;;9.83;8.17;;;13.00;99.90;;;;;;5093436;28;20724;-65
2021/10/20 00:38:00;;;;;;;8.90;8.00;;;12.90;99.90;;;;;;5093410;28;20724;-65
2021/10/20 00:40:28;;;;;;;10.83;8.47;;;13.00;99.90;;;;;;5093578;28;20287;-66
2021/10/20 00:42:56;;;;;;;8.67;7.77;;;12.90;99.90;;;;;;5093722;28;20322;-65
2021/10/20 00:45:25;;;;;;;9.60;8.70;;;12.90;99.90;;;;;;5093488;28;20286;-64
2021/10/20 00:47:53;;;;;;;8.73;7.87;;;12.90;99.90;;;;;;5093292;28;20223;-65
2021/10/20 00:50:21;;;;;;;9.93;8.90;;;12.80;99.90;;;;;;5093445;28;20204;-64
2021/10/20 00:52:49;;;;;;;8.60;7.70;;;12.80;99.90;;;;;;5093426;28;20200;-64
2021/10/20 00:55:17;;;;;;;8.30;7.50;;;12.90;99.90;;;;;;5093074;28;20224;-64
2021/10/20 00:57:47;;;;;;;9.10;7.50;;;12.80;99.90;;;;;;5093388;28;20196;-65
2021/10/20 01:00:16;;;;;;;8.93;7.53;;;12.80;99.90;;;;;;5092971;28;20728;-65
2021/10/20 01:02:46;;;;;;;9.37;7.67;;;12.90;99.90;;;;;;5093121;28;20283;-64
2021/10/20 01:05:15;;;;;;;7.83;7.07;;;12.90;99.90;;;;;;5092911;28;20234;-64
2021/10/20 01:07:43;;;;;;;8.00;7.20;;;12.90;99.90;;;;;;5093123;28;20307;-65
2021/10/20 01:10:12;;;;;;;9.97;7.93;;;12.90;99.90;;;;;;5092848;28;20302;-65
2021/10/20 01:12:55;;;;;;;9.17;6.60;;;12.90;99.90;;;;;;5089401;27;20541;-64
2021/10/20 01:15:25;;;;;;;8.53;6.70;;;13.00;99.90;;;;;;5089514;28;20206;-66
2021/10/20 01:17:53;;;;;;;7.43;6.73;;;12.90;99.90;;;;;;5089682;28;20595;-64
2021/10/20 01:20:24;;;;;;;8.40;6.90;;;13.00;99.90;;;;;;5089538;28;20200;-65
2021/10/20 01:22:54;;;;;;;6.97;6.27;;;13.00;99.90;;;;;;5089530;28;20237;-64
2021/10/20 01:25:22;;;;;;;8.70;6.30;;;13.00;99.90;;;;;;5089297;28;20287;-65
2021/10/20 01:27:50;;;;;;;7.33;6.63;;;13.00;99.90;;;;;;5089154;28;20675;-64
2021/10/20 01:30:18;;;;;;;6.65;6.00;;;13.10;99.90;;;;;;5089136;28;20294;-64
2021/10/20 01:32:46;;;;;;;6.37;5.77;;;13.00;99.90;;;;;;5089026;28;20315;-64
2021/10/20 01:35:14;;;;;;;6.40;5.80;;;13.10;99.90;;;;;;5089316;28;20296;-65
2021/10/20 01:37:42;;;;;;;6.57;5.90;;;13.00;99.90;;;;;;5089244;28;20571;-64
2021/10/20 01:40:12;;;;;;;6.77;6.10;;;13.00;99.90;;;;;;5089083;28;20206;-65
2021/10/20 01:42:40;;;;;;;6.87;6.17;;;13.10;99.90;;;;;;5089105;28;20271;-66
2021/10/20 01:45:10;;;;;;;8.43;6.30;;;13.00;99.90;;;;;;5089119;28;20299;-65
2021/10/20 01:47:38;;;;;;;6.67;6.00;;;13.00;99.90;;;;;;5088940;28;20204;-64
2021/10/20 01:50:08;;;;;;;6.90;6.20;;;13.10;99.90;;;;;;5088702;28;20295;-63
2021/10/20 01:52:36;;;;;;;6.43;5.83;;;13.10;99.90;;;;;;5088510;28;20698;-64
2021/10/20 01:55:05;;;;;;;6.63;5.80;;;13.10;99.90;;;;;;5088718;28;20294;-65
2021/10/20 01:57:34;;;;;;;6.13;5.53;;;13.10;99.90;;;;;;5088762;28;20255;-65
2021/10/20 02:00:02;;;;;;;6.53;5.90;;;13.10;99.90;;;;;;5088410;28;20664;-64
2021/10/20 02:02:30;;;;;;;6.60;5.57;;;13.10;99.90;;;;;;5088272;28;20676;-64
2021/10/20 02:04:58;;;;;;;5.47;4.97;;;13.10;99.90;;;;;;5088719;28;20204;-64
2021/10/20 02:07:27;;;;;;;6.03;5.37;;;13.00;99.90;;;;;;5088636;28;20196;-65
2021/10/20 02:09:55;;;;;;;6.00;5.43;;;13.00;99.90;;;;;;5088441;28;20253;-65
2021/10/20 02:12:23;;;;;;;7.03;5.13;;;12.90;99.90;;;;;;5088173;28;20623;-65
2021/10/20 02:14:52;;;;;;;5.63;5.00;;;12.80;99.90;;;;;;5088457;28;20291;-64
2021/10/20 02:17:20;;;;;;;5.95;5.35;;;12.80;99.90;;;;;;5088272;28;20290;-65
2021/10/20 02:19:47;;;;;;;5.87;5.33;;;12.80;99.90;;;;;;5088094;28;20597;-64
2021/10/20 02:22:15;;;;;;;5.63;5.10;;;12.80;99.90;;;;;;5086284;28;20202;-63
2021/10/20 02:24:43;;;;;;;6.87;5.40;;;12.80;99.90;;;;;;5074603;28;20207;-65
2021/10/20 02:27:11;;;;;;;5.90;5.30;;;12.80;99.90;;;;;;5074785;28;20207;-64
2021/10/20 02:29:39;;;;;;;7.00;5.30;;;12.70;99.90;;;;;;5074491;28;20656;-64
2021/10/20 02:32:08;;;;;;;5.97;4.87;;;12.90;99.90;;;;;;5074450;28;20623;-65
2021/10/20 02:34:36;;;;;;;6.43;4.90;;;12.80;99.90;;;;;;5074401;28;20240;-64
2021/10/20 02:37:04;;;;;;;6.60;5.43;;;12.80;99.90;;;;;;5074497;28;20197;-65
2021/10/20 02:39:32;;;;;;;6.43;5.07;;;12.80;99.90;;;;;;5074195;28;20859;-64
2021/10/20 02:42:00;;;;;;;7.03;4.90;;;12.80;99.90;;;;;;5074496;28;20232;-65
2021/10/20 02:44:27;;;;;;;5.43;4.93;;;12.70;99.90;;;;;;5074169;28;20748;-64
2021/10/20 02:46:55;;;;;;;5.93;5.03;;;12.70;99.90;;;;;;5074319;28;20631;-65
2021/10/20 02:49:25;;;;;;;5.57;5.00;;;12.70;99.90;;;;;;5074413;28;20288;-65
2021/10/20 02:51:52;;;;;;;7.17;4.60;;;12.80;99.90;;;;;;5073905;28;20718;-64
2021/10/20 02:54:20;;;;;;;6.20;4.60;;;12.80;99.90;;;;;;5074306;28;20204;-64
2021/10/20 02:56:49;;;;;;;6.07;5.10;;;12.70;99.90;;;;;;5073932;28;20303;-65
2021/10/20 02:59:17;;;;;;;5.43;4.60;;;12.70;99.90;;;;;;5074022;28;20738;-65
2021/10/20 03:01:44;;;;;;;6.82;4.68;;;12.70;99.90;;;;;;5074095;28;20287;-65
2021/10/20 03:04:12;;;;;;;4.80;4.40;;;12.70;99.90;;;;;;5074011;28;20291;-65
2021/10/20 03:06:42;;;;;;;5.60;5.10;;;12.60;99.90;;;;;;5073853;28;20548;-64
2021/10/20 03:09:09;;;;;;;4.80;4.40;;;12.70;99.90;;;;;;5073979;28;20235;-65
2021/10/20 03:11:37;;;;;;;5.20;4.70;;;12.80;99.90;;;;;;5073483;28;20224;-65
2021/10/20 03:14:05;;;;;;;5.07;4.57;;;12.80;99.90;;;;;;5073567;28;20299;-64
2021/10/20 03:16:33;;;;;;;5.43;4.77;;;12.80;99.90;;;;;;5073485;28;20238;-64
2021/10/20 03:19:01;;;;;;;4.57;4.17;;;12.90;99.90;;;;;;5073686;28;20204;-64
2021/10/20 03:21:29;;;;;;;4.70;4.20;;;12.80;99.90;;;;;;5073430;28;20399;-64
2021/10/20 03:23:58;;;;;;;5.63;5.03;;;12.80;99.90;;;;;;5073666;28;20292;-64
2021/10/20 03:26:26;;;;;;;4.63;4.23;;;13.00;99.90;;;;;;5073587;28;20283;-64
2021/10/20 03:28:58;;;;;;;5.87;4.67;;;13.00;99.90;;;;;;5073714;28;20284;-64
2021/10/20 03:31:26;;;;;;;5.50;4.90;;;13.00;99.90;;;;;;5073285;28;20208;-65
2021/10/20 03:33:54;;;;;;;4.35;3.95;;;12.90;99.90;;;;;;5072704;28;20231;-65
2021/10/20 03:36:22;;;;;;;5.30;4.10;;;12.80;99.90;;;;;;5073070;28;20295;-64
2021/10/20 03:38:50;;;;;;;4.32;3.92;;;12.70;99.90;;;;;;5073186;28;20560;-64
2021/10/20 03:41:19;;;;;;;5.82;4.40;;;12.80;99.90;;;;;;5073408;28;20299;-65
2021/10/20 03:43:47;;;;;;;5.93;4.40;;;12.80;99.90;;;;;;5073194;28;20303;-64
2021/10/20 03:46:15;;;;;;;5.37;4.30;;;12.70;99.90;;;;;;5072977;28;20243;-65
2021/10/20 03:48:43;;;;;;;6.33;4.27;;;12.60;99.90;;;;;;5073049;28;20197;-65
2021/10/20 03:51:10;;;;;;;4.43;4.00;;;12.80;99.90;;;;;;5073159;28;20242;-65
2021/10/20 03:53:38;;;;;;;4.20;3.63;;;12.80;99.90;;;;;;5073143;28;20207;-64
2021/10/20 03:56:06;;;;;;;4.60;3.90;;;12.70;99.90;;;;;;5073033;28;20288;-65
2021/10/20 03:58:35;;;;;;;5.70;4.20;;;12.80;99.90;;;;;;5072913;28;20390;-64
2021/10/20 04:01:03;;;;;;;5.33;3.80;;;12.90;99.90;;;;;;5073029;28;20292;-64
2021/10/20 04:03:31;;;;;;;4.53;4.13;;;12.90;99.90;;;;;;5072447;28;20605;-64
2021/10/20 04:05:59;;;;;;;6.18;4.10;;;12.80;99.90;;;;;;5072862;28;20238;-65
2021/10/20 04:08:27;;;;;;;4.53;4.13;;;12.70;99.90;;;;;;5072513;28;20671;-64
2021/10/20 04:10:55;;;;;;;5.63;4.23;;;12.60;99.90;;;;;;5072130;28;20783;-65
2021/10/20 04:13:22;;;;;;;4.47;4.07;;;12.50;99.90;;;;;;5072369;28;20660;-65
2021/10/20 04:15:52;;;;;;;5.90;4.43;;;12.50;99.90;;;;;;5072819;28;20201;-64
2021/10/20 04:18:20;;;;;;;4.67;3.93;;;12.40;99.90;;;;;;5072234;28;20204;-64
2021/10/20 04:20:48;;;;;;;4.40;4.00;;;12.40;99.90;;;;;;5072700;28;20283;-65
2021/10/20 04:23:16;;;;;;;4.30;3.90;;;12.30;99.90;;;;;;5072605;28;20285;-64
2021/10/20 04:25:43;;;;;;;4.30;3.90;;;12.30;99.90;;;;;;5072178;28;20300;-66
2021/10/20 04:28:11;;;;;;;6.37;4.07;;;12.30;99.90;;;;;;5072259;28;20224;-65
2021/10/20 04:30:39;;;;;;;5.13;3.87;;;12.30;99.90;;;;;;5072775;28;20196;-64
2021/10/20 04:33:08;;;;;;;4.47;4.03;;;12.30;99.90;;;;;;5071892;28;20220;-66
2021/10/20 04:35:36;;;;;;;4.97;3.67;;;12.40;99.90;;;;;;5072474;28;20289;-65
2021/10/20 04:38:04;;;;;;;4.00;3.67;;;12.40;99.90;;;;;;5072311;28;20201;-64
2021/10/20 04:40:33;;;;;;;6.43;4.03;;;12.30;99.90;;;;;;5072136;28;20220;-64
2021/10/20 04:43:01;;;;;;;4.10;3.67;;;12.30;99.90;;;;;;5072235;28;20677;-64
2021/10/20 04:45:29;;;;;;;4.53;3.73;;;12.30;99.90;;;;;;5071769;28;20223;-65
2021/10/20 04:47:57;;;;;;;4.53;3.50;;;12.30;99.90;;;;;;5072097;28;20283;-64
2021/10/20 04:50:26;;;;;;;4.30;3.53;;;12.30;99.90;;;;;;5072262;28;20209;-65
2021/10/20 04:52:54;;;;;;;4.37;3.50;;;12.30;99.90;;;;;;5071873;28;20798;-64
2021/10/20 04:55:22;;;;;;;6.83;3.93;;;12.30;99.90;;;;;;5071759;28;20207;-64
2021/10/20 04:57:51;;;;;;;3.50;3.20;;;12.30;99.90;;;;;;5072092;28;20283;-65
2021/10/20 05:00:21;;;;;;;3.77;3.47;;;12.20;99.90;;;;;;5072240;28;20300;-65
2021/10/20 05:02:49;;;;;;;3.70;3.40;;;12.20;99.90;;;;;;5071722;28;20236;-65
2021/10/20 05:05:16;;;;;;;3.40;3.03;;;12.20;99.90;;;;;;5072169;28;20577;-64
2021/10/20 05:07:51;;;;;;;3.93;3.60;;;12.10;99.90;;;;;;5072113;28;20224;-65
2021/10/20 05:10:21;;;;;;;3.67;3.27;;;12.10;99.90;;;;;;5072033;28;20541;-65
2021/10/20 05:12:49;;;;;;;4.90;3.63;;;12.00;99.90;;;;;;5071661;28;20236;-64
2021/10/20 05:15:17;;;;;;;5.10;3.57;;;12.00;99.90;;;;;;5071593;28;20201;-65
2021/10/20 05:17:45;;;;;;;6.97;3.77;;;12.00;99.90;;;;;;5071505;28;20863;-65
2021/10/20 05:20:14;;;;;;;4.10;3.70;;;11.90;99.90;;;;;;5071951;28;20208;-64
2021/10/20 05:22:44;;;;;;;3.73;3.40;;;11.90;99.90;;;;;;5072549;28;20296;-64
2021/10/20 05:25:14;;;;;;;4.30;3.10;;;11.90;99.90;;;;;;5072430;28;20201;-65
2021/10/20 05:27:43;;;;;;;3.90;3.43;;;11.90;99.90;;;;;;5072559;28;20192;-65
2021/10/20 05:30:12;;;;;;;4.37;3.30;;;11.90;99.90;;;;;;5072437;28;20303;-65
2021/10/20 05:32:40;;;;;;;3.90;3.40;;;11.90;99.90;;;;;;5072213;28;20291;-66
2021/10/20 05:35:08;;;;;;;4.27;3.43;;;11.90;99.90;;;;;;5071996;28;20671;-64
2021/10/20 05:37:36;;;;;;;4.07;3.70;;;11.90;99.90;;;;;;5071800;28;20613;-64
2021/10/20 05:40:05;;;;;;;4.10;3.70;;;11.90;99.90;;;;;;5071805;28;20630;-65
2021/10/20 05:42:34;;;;;;;3.57;3.27;;;11.90;99.90;;;;;;5072298;28;20201;-65
2021/10/20 05:45:02;;;;;;;4.37;3.70;;;12.00;99.90;;;;;;5071942;28;20201;-65
2021/10/20 05:47:30;;;;;;;6.93;3.67;;;12.00;99.90;;;;;;5072036;28;20304;-66
2021/10/20 05:49:58;;;;;;;3.93;3.53;;;12.10;99.90;;;;;;5071970;28;20207;-66
2021/10/20 05:52:26;;;;;;;5.57;5.07;;;12.20;99.90;;;;;;5071334;28;20200;-65
2021/10/20 05:54:54;;;;;;;3.87;3.47;;;12.20;99.90;;;;;;5070915;28;20688;-65
2021/10/20 05:57:22;;;;;;;4.60;3.50;;;12.30;99.90;;;;;;5071466;28;20208;-65
2021/10/20 05:59:51;;;;;;;3.30;3.00;;;12.30;99.90;;;;;;5075433;28;20197;-65
2021/10/20 06:02:19;;;;;;;3.77;3.30;;;12.50;99.90;;;;;;5075150;28;20292;-65
2021/10/20 06:04:47;;;;;;;4.53;3.70;;;12.50;99.90;;;;;;5075163;28;20203;-65
2021/10/20 06:07:15;;;;;;;4.03;3.47;;;12.50;99.90;;;;;;5074826;28;20733;-66
2021/10/20 06:09:43;;;;;;;4.80;3.63;;;12.60;99.90;;;;;;5074978;28;20254;-65
2021/10/20 06:12:11;;;;;;;4.10;3.40;;;12.60;99.90;;;;;;5074743;28;20323;-65
2021/10/20 06:14:39;;;;;;;7.77;3.67;;;12.70;99.90;;;;;;5074979;28;20224;-64
2021/10/20 06:17:08;;;;;;;4.83;3.27;;;12.80;99.90;;;;;;5074886;28;20661;-65
2021/10/20 06:19:36;;;;;;;3.60;3.30;;;12.80;99.90;;;;;;5074784;28;20284;-65
2021/10/20 06:22:04;;;;;;;4.07;3.50;;;12.80;99.90;;;;;;5075177;28;20228;-65
2021/10/20 06:24:32;;;;;;;3.93;3.57;;;12.80;99.90;;;;;;5057903;28;20675;-65
2021/10/20 06:27:00;;;;;;;3.40;3.07;;;12.80;99.90;;;;;;5054966;28;20690;-64
2021/10/20 06:29:28;;;;;;;4.20;3.63;;;12.80;99.90;;;;;;5058657;28;20803;-69
2021/10/20 06:31:55;;;;;;;5.83;3.23;;;12.70;99.90;;;;;;5057543;28;20293;-66
2021/10/20 06:34:25;;;;;;;3.10;2.77;;;12.80;99.90;;;;;;5058123;28;20324;-73
2021/10/20 06:36:53;;;;;;;4.10;3.05;;;12.90;99.90;;;;;;5055812;28;20231;-71
2021/10/20 06:39:22;;;;;;;3.60;3.30;;;13.00;99.90;;;;;;5054862;28;20671;-65
2021/10/20 06:41:50;;;;;;;3.63;3.30;;;13.10;99.90;;;;;;5054842;28;20848;-64
2021/10/20 06:44:18;;;;;;;3.75;3.13;;;13.20;99.90;;;;;;5061621;28;20280;-64
2021/10/20 06:46:46;;;;;;;2.97;2.70;;;13.40;99.90;;;;;;5075145;28;20243;-63
2021/10/20 06:49:15;;;;;;;4.03;2.90;;;13.50;99.90;;;;;;5072345;28;20232;-63
2021/10/20 06:51:44;;;;;;;3.65;3.35;;;13.70;99.90;;;;;;5055002;28;20204;-64
2021/10/20 06:54:18;;;;;;;3.03;2.65;;;13.80;99.90;;;;;;5054596;28;20307;-62
2021/10/20 06:56:47;;;;;;;5.43;3.20;;;13.90;99.90;;;;;;5054769;28;20280;-62
2021/10/20 06:59:20;;;;;;;3.85;2.90;;;14.10;99.90;;;;;;5054670;28;20194;-62
2021/10/20 07:01:48;;;;;;;3.33;3.03;;;14.20;99.90;;;;;;5054575;28;20733;-63
2021/10/20 07:04:16;;;;;;;3.08;2.70;;;14.40;99.90;;;;;;5054611;28;20288;-63
2021/10/20 07:06:49;;;;;;;3.72;2.85;;;14.50;99.90;;;;;;5054733;28;20292;-62
2021/10/20 07:09:17;;;;;;;5.28;3.63;;;14.60;99.90;;;;;;5054521;28;20186;-63
2021/10/20 07:11:44;;;;;;;4.68;2.95;;;14.80;99.90;;;;;;5053996;28;20229;-63
2021/10/20 07:14:12;;;;;;;3.47;2.80;;;14.90;99.90;;;;;;5054395;28;20245;-62
2021/10/20 07:16:40;;;;;;;3.22;2.92;;;15.20;99.90;;;;;;5054380;28;20611;-63
2021/10/20 07:19:08;;;;;;;5.57;2.83;;;15.10;99.90;;;;;;5054268;28;20209;-62
2021/10/20 07:21:38;;;;;;;3.83;2.97;;;15.30;99.90;;;;;;5054139;28;20236;-62
2021/10/20 07:24:07;;;;;;;3.08;2.78;;;15.30;99.90;;;;;;5054410;28;20232;-63
2021/10/20 07:26:35;;;;;;;4.68;2.90;;;15.40;99.90;;;;;;5054056;28;20684;-63
2021/10/20 07:29:03;;;;;;;5.05;3.20;;;15.40;99.90;;;;;;5054474;28;20311;-63
2021/10/20 07:31:31;;;;;;;5.47;3.70;;;15.40;99.90;;;;;;5054322;28;20336;-63
2021/10/20 07:33:59;;;;;;;4.20;2.97;;;15.40;99.90;;;;;;5053744;28;20213;-63
2021/10/20 07:36:28;;;;;;;4.38;3.28;;;15.40;99.90;;;;;;5053815;28;20205;-63
2021/10/20 07:38:57;;;;;;;4.00;3.50;;;15.30;99.90;;;;;;5053587;28;20645;-62
2021/10/20 07:41:26;;;;;;;5.78;3.22;;;15.30;99.90;;;;;;5054124;28;20208;-63
2021/10/20 07:43:54;;;;;;;3.72;2.80;;;15.40;99.90;;;;;;5057029;28;20585;-63
2021/10/20 07:46:22;;;;;;;6.03;3.42;;;15.40;99.90;;;;;;5073933;28;20312;-62
2021/10/20 07:48:50;;;;;;;3.08;2.80;;;15.40;99.90;;;;;;5073631;28;20270;-64
2021/10/20 07:51:18;;;;;;;4.13;2.97;;;15.60;99.90;;;;;;5073999;28;20223;-63
2021/10/20 07:53:46;;;;;;;3.63;2.90;;;15.70;99.90;;;;;;5073836;28;20200;-63
2021/10/20 07:56:14;;;;;;;5.53;3.40;;;15.80;99.90;;;;;;5073424;28;20224;-64
2021/10/20 07:58:43;;;;;;;3.28;2.97;;;15.90;99.90;;;;;;5073775;28;20304;-61
2021/10/20 08:01:11;;;;;;;5.05;3.63;;;16.10;99.90;;;;;;5073672;28;20215;-63
2021/10/20 08:03:40;;;;;;;4.88;2.88;;;16.10;99.90;;;;;;5073226;28;20201;-62
2021/10/20 08:06:08;;;;;;;5.63;3.53;;;16.30;99.90;;;;;;5073278;28;20232;-62
2021/10/20 08:08:36;;;;;;;3.72;3.03;;;16.30;99.90;;;;;;5073223;28;20296;-62
2021/10/20 08:11:03;;;;;;;4.80;3.00;;;16.40;99.90;;;;;;5073095;28;20319;-62
2021/10/20 08:13:31;;;;;;;4.95;3.20;;;16.30;99.90;;;;;;5073291;28;20275;-64
2021/10/20 08:16:00;;;;;;;4.78;3.05;;;16.40;99.90;;;;;;5073295;28;20256;-62
2021/10/20 08:18:28;;;;;;;4.07;3.28;;;16.40;99.90;;;;;;5073159;28;20197;-62
2021/10/20 08:20:57;;;;;;;3.78;2.92;;;16.40;99.90;;;;;;5072384;28;20604;-63
2021/10/20 08:23:26;;;;;;;5.15;3.50;;;16.30;99.90;;;;;;5073124;28;20205;-62
2021/10/20 08:25:54;;;;;;;4.47;3.25;;;16.30;99.90;;;;;;5073013;28;20212;-61
2021/10/20 08:28:22;;;;;;;5.03;2.90;;;16.10;99.90;;;;;;5071230;28;20201;-62
2021/10/20 08:30:51;;;;;;;4.55;3.10;;;16.10;99.90;;;;;;5072891;28;20652;-61
2021/10/20 08:33:20;;;;;;;5.25;3.42;;;16.10;99.90;;;;;;5072629;28;20228;-62
2021/10/20 08:35:48;;;;;;;3.78;3.25;;;16.10;99.90;;;;;;5072711;28;20308;-62
2021/10/20 08:38:16;;;;;;;5.07;3.05;;;16.20;99.90;;;;;;5072658;28;20685;-61
2021/10/20 08:40:46;;;;;;;3.78;3.28;;;16.30;99.90;;;;;;5069040;28;20205;-63
2021/10/20 08:43:15;;;;;;;6.95;3.60;;;16.40;99.90;;;;;;5058855;28;20193;-62
2021/10/20 08:45:43;;;;;;;4.22;3.60;;;16.40;99.90;;;;;;5072650;28;20341;-62
2021/10/20 08:48:12;;;;;;;4.65;2.95;;;16.50;99.90;;;;;;5072734;28;20215;-62
2021/10/20 08:50:44;;;;;;;3.78;3.45;;;16.60;99.90;;;;;;5072534;28;20296;-63
2021/10/20 08:53:12;;;;;;;5.00;3.42;;;16.70;99.90;;;;;;5072580;28;20185;-62
2021/10/20 08:55:40;;;;;;;4.90;3.30;;;16.70;99.90;;;;;;5072727;28;20223;-62
2021/10/20 08:58:08;;;;;;;5.05;3.55;;;16.80;99.90;;;;;;5066259;28;20295;-61
2021/10/20 09:00:35;;;;;;;7.15;3.28;;;16.80;99.90;;;;;;5072798;28;20208;-62
2021/10/20 09:03:03;;;;;;;4.40;3.70;;;16.90;99.90;;;;;;5071962;28;20722;-62
2021/10/20 09:05:31;;;;;;;7.55;4.03;;;16.90;99.90;;;;;;5072451;28;20254;-62
2021/10/20 09:08:01;;;;;;;4.53;3.40;;;16.90;99.90;;;;;;5072264;28;20240;-62
2021/10/20 09:10:30;;;;;;;4.20;3.72;;;17.00;99.90;;;;;;5072028;28;20197;-60
2021/10/20 09:12:59;;;;;;;5.35;3.45;;;16.90;99.90;;;;;;5072038;28;20323;-62
2021/10/20 09:15:29;;;;;;;6.18;3.50;;;16.90;99.90;;;;;;5071823;28;20948;-63
2021/10/20 09:17:59;;;;;;;6.40;4.03;;;16.90;99.90;;;;;;5072200;28;20312;-62
2021/10/20 09:20:29;;;;;;;6.78;3.72;;;16.90;99.90;;;;;;5072250;28;20651;-62
2021/10/20 09:23:03;;;;;;;4.82;3.38;;;17.00;99.90;;;;;;5072636;28;20185;-62
2021/10/20 09:25:37;;;;;;;7.70;3.10;;;17.10;99.90;;;;;;5071158;28;20187;-61
2021/10/20 09:28:06;;;;;;;3.63;2.70;;;17.20;99.90;;;;;;5071591;28;20268;-61
2021/10/20 09:30:36;;;;;;;4.22;3.60;;;17.30;99.90;;;;;;5071588;28;20683;-61
2021/10/20 09:33:06;;;;;;;4.57;3.05;;;17.40;99.90;;;;;;5072816;28;20206;-62
2021/10/20 09:35:34;;;;;;;6.50;3.33;;;17.40;99.90;;;;;;5075783;28;20211;-61
2021/10/20 09:38:04;;;;;;;5.38;3.40;;;17.60;99.90;;;;;;5075579;28;20236;-61
2021/10/20 09:40:38;;;;;;;4.07;2.95;;;17.60;99.90;;;;;;5075292;28;20207;-62
2021/10/20 09:43:08;;;;;;;6.25;3.00;;;17.70;99.90;;;;;;5075643;28;20225;-62
2021/10/20 09:45:39;;;;;;;3.47;3.10;;;17.80;99.90;;;;;;5076145;28;20338;-61
2021/10/20 09:48:16;;;;;;;3.75;3.20;;;17.90;99.90;;;;;;5075919;28;20298;-62
2021/10/20 09:51:06;;;;;;;4.20;3.40;;;18.00;99.90;;;;;;5075632;28;20767;-62
2021/10/20 09:53:37;;;;;;;5.35;3.20;;;18.20;99.90;;;;;;5075392;28;20866;-63
2021/10/20 09:56:21;;;;;;;4.47;2.97;;;18.00;99.90;;;;;;5075308;28;20296;-62
2021/10/20 09:58:50;;;;;;;4.80;3.25;;;17.90;99.90;;;;;;5075328;28;20280;-63
2021/10/20 10:01:18;;;;;;;3.85;3.00;;;17.80;99.90;;;;;;5075077;28;20316;-62
2021/10/20 10:03:47;;;;;;;5.07;3.05;;;17.90;99.90;;;;;;5075009;28;20207;-62
2021/10/20 10:06:15;;;;;;;6.93;3.50;;;17.80;99.90;;;;;;5075245;28;20232;-62
2021/10/20 10:08:45;;;;;;;3.85;3.17;;;17.70;99.90;;;;;;5075324;28;20300;-62
2021/10/20 10:11:13;;;;;;;5.47;3.63;;;17.60;99.90;;;;;;5074907;28;20320;-62
2021/10/20 10:13:44;;;;;;;4.30;3.70;;;17.60;99.90;;;;;;5075094;28;20285;-61
2021/10/20 10:16:12;;;;;;;4.18;3.38;;;17.80;99.90;;;;;;5075042;28;20239;-62
2021/10/20 10:18:41;;;;;;;3.75;3.08;;;17.80;99.90;;;;;;5074854;28;20232;-62
2021/10/20 10:21:28;;;;;;;3.67;3.25;;;17.90;99.90;;;;;;5074862;28;20685;-64
2021/10/20 10:23:58;;;;;;;7.45;3.78;;;18.10;99.90;;;;;;5074603;28;20644;-62
2021/10/20 10:26:27;;;;;;;5.13;3.28;;;18.30;99.90;;;;;;5074691;28;20192;-62
2021/10/20 10:29:13;;;;;;;4.85;3.88;;;18.40;99.90;;;;;;5074643;28;20288;-62
2021/10/20 10:31:44;;;;;;;9.02;3.70;;;18.60;99.90;;;;;;5074646;28;20185;-62
2021/10/20 10:34:18;;;;;;;5.53;3.60;;;18.70;99.90;;;;;;5074672;28;20185;-61
2021/10/20 10:36:52;;;;;;;4.85;3.70;;;18.70;99.90;;;;;;5074228;28;20691;-62
2021/10/20 10:39:22;;;;;;;4.40;3.60;;;18.60;99.90;;;;;;5074436;28;20228;-62
2021/10/20 10:41:51;;;;;;;5.50;3.95;;;18.50;99.90;;;;;;5074409;28;20197;-62
2021/10/20 10:44:23;;;;;;;4.43;3.53;;;18.60;99.90;;;;;;5073657;28;20650;-62
2021/10/20 10:47:07;;;;;;;4.30;3.90;;;18.60;99.90;;;;;;5074446;28;20272;-62
2021/10/20 10:49:38;;;;;;;4.70;3.28;;;18.60;99.90;;;;;;5074370;28;20213;-63
2021/10/20 10:52:22;;;;;;;3.83;3.42;;;18.70;99.90;;;;;;5074472;28;20276;-63
2021/10/20 10:55:13;;;;;;;4.50;3.58;;;18.70;99.90;;;;;;5071740;28;20201;-62
2021/10/20 10:57:54;;;;;;;6.03;3.30;;;18.80;99.90;;;;;;5073967;28;20732;-62
2021/10/20 11:00:35;;;;;;;6.55;3.28;;;18.90;99.90;;;;;;5074227;28;20264;-61
2021/10/20 11:03:15;;;;;;;4.18;3.00;;;19.10;99.90;;;;;;5074128;28;20189;-62
2021/10/20 11:05:51;;;;;;;5.63;3.58;;;19.30;99.90;;;;;;5074062;28;20656;-62
2021/10/20 11:08:20;;;;;;;5.28;2.83;;;19.50;99.90;;;;;;5074236;28;20239;-62
2021/10/20 11:10:51;;;;;;;8.32;3.15;;;19.60;99.90;;;;;;5073786;28;20196;-62
2021/10/20 11:13:19;;;;;;;3.67;2.80;;;19.80;99.90;;;;;;5073825;28;20655;-61
2021/10/20 11:15:48;;;;;;;6.45;2.92;;;20.00;99.90;;;;;;5073931;28;20295;-62
2021/10/20 11:18:16;;;;;;;3.05;2.75;;;20.00;99.90;;;;;;5073565;28;20227;-61
2021/10/20 11:20:46;;;;;;;3.97;2.85;;;20.10;99.90;;;;;;5073949;28;20260;-62
2021/10/20 11:23:17;;;;;;;5.75;3.08;;;20.10;99.90;;;;;;5073456;28;20209;-61
2021/10/20 11:25:46;;;;;;;6.47;3.00;;;20.20;99.90;;;;;;5073692;28;20300;-62
2021/10/20 11:28:16;;;;;;;5.30;3.20;;;20.30;99.90;;;;;;5073520;28;20207;-61
2021/10/20 11:30:44;;;;;;;6.10;3.47;;;20.20;99.90;;;;;;5073601;28;20299;-61
2021/10/20 11:33:14;;;;;;;4.78;2.95;;;20.30;99.90;;;;;;5061683;28;20202;-61
2021/10/20 11:35:43;;;;;;;5.43;3.10;;;20.20;99.90;;;;;;5072639;28;20232;-61
2021/10/20 11:38:12;;;;;;;4.35;3.00;;;20.30;99.90;;;;;;5073161;28;20224;-62
2021/10/20 11:40:42;;;;;;;5.13;3.10;;;20.20;99.90;;;;;;5073151;28;20865;-62
2021/10/20 11:43:17;;;;;;;7.53;3.33;;;20.20;99.90;;;;;;5073443;28;20220;-61
2021/10/20 11:45:45;;;;;;;5.47;3.03;;;20.20;99.90;;;;;;5073235;28;20280;-62
2021/10/20 11:48:18;;;;;;;5.65;3.22;;;20.10;99.90;;;;;;5072984;28;20238;-62
2021/10/20 11:50:50;;;;;;;3.30;3.00;;;20.10;99.90;;;;;;5072804;28;20640;-61
2021/10/20 11:53:18;;;;;;;5.60;3.17;;;20.10;99.90;;;;;;5072907;28;20184;-61
2021/10/20 11:55:47;;;;;;;5.72;3.10;;;20.10;99.90;;;;;;5072043;28;20683;-62
2021/10/20 11:58:22;;;;;;;6.97;3.15;;;20.00;99.90;;;;;;5072798;28;20252;-61
2021/10/20 12:00:52;;;;;;;4.80;3.38;;;19.90;99.90;;;;;;5072821;28;20276;-61
2021/10/20 12:03:20;;;;;;;5.65;2.97;;;19.80;99.90;;;;;;5072717;28;20201;-62
2021/10/20 12:05:49;;;;;;;3.35;3.05;;;19.80;99.90;;;;;;5073083;28;20200;-62
2021/10/20 12:08:16;;;;;;;7.80;3.35;;;19.80;99.90;;;;;;5072891;28;20287;-62
2021/10/20 12:10:45;;;;;;;8.80;3.15;;;19.80;99.90;;;;;;5072662;28;20303;-61
2021/10/20 12:13:25;;;;;;;6.22;3.17;;;19.80;99.90;;;;;;5072566;28;20196;-62
2021/10/20 12:15:54;;;;;;;4.05;3.00;;;19.90;99.90;;;;;;5072738;28;20255;-62
2021/10/20 12:18:25;;;;;;;5.25;3.20;;;19.90;99.90;;;;;;5072292;28;20322;-62
2021/10/20 12:20:57;;;;;;;6.32;3.15;;;19.90;99.90;;;;;;5072472;28;20295;-61
2021/10/20 12:23:31;;;;;;;7.00;2.92;;;19.80;99.90;;;;;;5073044;28;20181;-61
2021/10/20 12:26:00;;;;;;;3.85;3.08;;;19.70;99.90;;;;;;5072157;28;20628;-63
2021/10/20 12:28:30;;;;;;;4.05;2.88;;;19.50;99.90;;;;;;5072552;28;20201;-61
2021/10/20 12:31:03;;;;;;;6.40;3.00;;;19.30;99.90;;;;;;5072057;28;20300;-61
2021/10/20 12:33:39;;;;;;;5.00;3.20;;;19.20;99.90;;;;;;5073280;28;20188;-61
2021/10/20 12:36:07;;;;;;;7.53;3.58;;;19.00;99.90;;;;;;5072328;28;20184;-61
2021/10/20 12:38:35;;;;;;;3.67;3.13;;;18.90;99.90;;;;;;5072411;28;20217;-61
2021/10/20 12:41:08;;;;;;;6.60;3.75;;;18.90;99.90;;;;;;5072121;28;20212;-62
2021/10/20 12:43:37;;;;;;;7.28;3.83;;;18.90;99.90;;;;;;5072039;28;20672;-62
2021/10/20 12:46:27;;;;;;;5.32;3.65;;;19.00;99.90;;;;;;5072349;28;20542;-61
2021/10/20 12:48:54;;;;;;;15.25;4.38;;;19.10;99.90;;;;;;5072178;28;20197;-62
2021/10/20 12:51:25;;;;;;;12.95;4.70;;;19.10;99.90;;;;;;5072360;28;20196;-62
2021/10/20 12:53:59;;;;;;;9.23;3.70;;;19.10;99.90;;;;;;5072208;28;20200;-61
2021/10/20 12:56:28;;;;;;;8.73;3.85;;;19.00;99.90;;;;;;5072087;28;20181;-61